createdAt,value
2019-02-09T00:00:34.421Z,44.17
2019-02-09T00:03:08.483Z,41.43
2019-02-09T00:05:41.971Z,42.37
2019-02-09T00:08:14.820Z,41.33
2019-02-09T00:10:47.558Z,42.47
2019-02-09T00:13:20.586Z,42.83
2019-02-09T00:15:53.486Z,43.57
2019-02-09T00:18:26.876Z,42.20
2019-02-09T00:20:59.421Z,41.60
2019-02-09T00:23:31.898Z,41.10
2019-02-09T00:26:05.095Z,41.97
2019-02-09T00:28:37.604Z,41.67
2019-02-09T00:31:10.000Z,44.43
2019-02-09T00:33:42.531Z,42.53
2019-02-09T00:36:15.707Z,42.83
2019-02-09T00:38:48.195Z,41.47
2019-02-09T00:41:20.742Z,43.30
2019-02-09T00:43:54.558Z,42.57
2019-02-09T00:46:27.070Z,42.07
2019-02-09T00:48:59.746Z,44.97
2019-02-09T00:51:32.163Z,42.83
2019-02-09T00:54:04.893Z,43.93
2019-02-09T00:56:37.989Z,44.13
2019-02-09T00:59:10.633Z,44.23
2019-02-09T01:01:43.339Z,43.77
2019-02-09T01:04:15.860Z,44.70
2019-02-09T01:06:49.542Z,44.53
2019-02-09T01:09:22.041Z,47.00
2019-02-09T01:11:54.442Z,47.10
2019-02-09T01:14:27.538Z,47.60
2019-02-09T01:16:59.945Z,47.87
2019-02-09T01:19:32.707Z,46.10
2019-02-09T01:22:05.445Z,47.57
2019-02-09T01:24:37.787Z,46.60
2019-02-09T01:27:10.258Z,45.53
2019-02-09T01:29:42.756Z,47.93
2019-02-09T01:32:15.374Z,48.43
2019-02-09T01:34:47.703Z,46.20
2019-02-09T01:37:20.442Z,48.20
2019-02-09T01:39:53.016Z,44.83
2019-02-09T01:42:25.611Z,47.97
2019-02-09T01:44:58.096Z,46.17
2019-02-09T01:47:31.297Z,46.83
2019-02-09T01:50:03.713Z,46.57
2019-02-09T01:52:35.988Z,46.30
2019-02-09T01:55:09.629Z,46.83
2019-02-09T01:57:42.038Z,46.40
2019-02-09T02:00:24.504Z,46.33
2019-02-09T02:02:57.179Z,45.47
2019-02-09T02:05:29.962Z,48.73
2019-02-09T02:08:02.654Z,45.30
2019-02-09T02:10:38.099Z,61.93
2019-02-09T02:13:12.166Z,47.33
2019-02-09T02:15:45.364Z,46.90
2019-02-09T02:18:17.970Z,47.13
2019-02-09T02:20:50.419Z,47.27
2019-02-09T02:23:22.837Z,46.90
2019-02-09T02:25:55.331Z,47.10
2019-02-09T02:28:27.649Z,45.33
2019-02-09T02:31:00.064Z,48.23
2019-02-09T02:33:32.761Z,48.10
2019-02-09T02:36:05.203Z,48.27
2019-02-09T02:38:37.732Z,46.40
2019-02-09T02:41:10.354Z,49.53
2019-02-09T02:43:42.957Z,50.20
2019-02-09T02:46:15.443Z,51.00
2019-02-09T02:48:47.964Z,48.57
2019-02-09T02:51:20.486Z,50.13
2019-02-09T02:53:53.341Z,50.23
2019-02-09T02:56:25.835Z,51.33
2019-02-09T02:58:58.189Z,50.80
2019-02-09T03:01:30.678Z,51.57
2019-02-09T03:04:05.091Z,51.40
2019-02-09T03:06:37.643Z,51.07
2019-02-09T03:09:11.138Z,48.13
2019-02-09T03:11:43.449Z,49.47
2019-02-09T03:14:15.785Z,49.90
2019-02-09T03:16:48.364Z,51.70
2019-02-09T03:19:21.422Z,47.57
2019-02-09T03:21:54.113Z,47.00
2019-02-09T03:24:26.704Z,49.77
2019-02-09T03:26:59.199Z,48.87
2019-02-09T03:29:32.516Z,48.77
2019-02-09T03:32:05.205Z,47.13
2019-02-09T03:34:37.684Z,50.17
2019-02-09T03:37:10.243Z,49.10
2019-02-09T03:39:42.656Z,49.33
2019-02-09T03:42:15.150Z,48.43
2019-02-09T03:44:48.096Z,46.60
2019-02-09T03:47:21.370Z,47.33
2019-02-09T03:49:53.991Z,51.73
2019-02-09T03:52:26.718Z,48.60
2019-02-09T03:54:59.547Z,49.40
2019-02-09T03:57:31.858Z,46.27
2019-02-09T04:00:06.541Z,47.10
2019-02-09T04:02:40.964Z,47.40
2019-02-09T04:05:14.689Z,48.07
2019-02-09T04:07:47.410Z,47.87
2019-02-09T04:10:22.351Z,46.63
2019-02-09T04:12:54.799Z,47.50
2019-02-09T04:15:28.089Z,47.63
2019-02-09T04:18:00.420Z,49.17
2019-02-09T04:20:33.010Z,49.00
2019-02-09T04:23:05.962Z,47.80
2019-02-09T04:25:38.386Z,48.40
2019-02-09T04:28:10.947Z,46.57
2019-02-09T04:30:43.633Z,49.60
2019-02-09T04:33:16.232Z,48.17
2019-02-09T04:35:48.814Z,46.27
2019-02-09T04:38:21.705Z,47.03
2019-02-09T04:40:54.256Z,46.37
2019-02-09T04:43:26.667Z,49.47
2019-02-09T04:45:59.027Z,48.37
2019-02-09T04:48:32.242Z,46.70
2019-02-09T04:51:04.600Z,47.17
2019-02-09T04:53:37.570Z,45.93
2019-02-09T04:56:11.684Z,46.73
2019-02-09T04:58:44.534Z,47.47
2019-02-09T05:01:17.203Z,47.70
2019-02-09T05:03:49.744Z,46.37
2019-02-09T05:06:22.398Z,45.73
2019-02-09T05:08:54.975Z,48.23
2019-02-09T05:11:27.686Z,47.47
2019-02-09T05:14:00.195Z,46.43
2019-02-09T05:16:32.699Z,46.67
2019-02-09T05:19:05.244Z,46.07
2019-02-09T05:21:37.933Z,46.17
2019-02-09T05:24:10.753Z,46.57
2019-02-09T05:26:43.186Z,47.30
2019-02-09T05:29:15.720Z,44.20
2019-02-09T05:31:48.380Z,45.57
2019-02-09T05:34:20.756Z,44.60
2019-02-09T05:37:01.514Z,45.83
2019-02-09T05:39:34.347Z,42.87
2019-02-09T05:42:07.243Z,46.17
2019-02-09T05:44:39.923Z,44.10
2019-02-09T05:47:12.404Z,44.07
2019-02-09T05:49:45.063Z,44.83
2019-02-09T05:52:17.563Z,44.33
2019-02-09T05:54:50.006Z,45.30
2019-02-09T05:57:22.509Z,45.60
2019-02-09T05:59:54.993Z,44.40
2019-02-09T06:02:27.359Z,43.40
2019-02-09T06:04:59.904Z,43.80
2019-02-09T06:07:32.290Z,43.43
2019-02-09T06:10:08.560Z,44.67
2019-02-09T06:12:41.082Z,42.03
2019-02-09T06:15:15.074Z,43.23
2019-02-09T06:17:47.670Z,44.30
2019-02-09T06:20:24.398Z,66.03
2019-02-09T06:22:59.382Z,42.40
2019-02-09T06:25:31.893Z,45.83
2019-02-09T06:28:04.739Z,43.47
2019-02-09T06:30:37.167Z,44.83
2019-02-09T06:33:09.683Z,53.07
2019-02-09T06:35:42.081Z,56.23
2019-02-09T06:38:14.961Z,45.00
2019-02-09T06:40:47.629Z,42.20
2019-02-09T06:43:20.060Z,42.57
2019-02-09T06:45:52.626Z,56.30
2019-02-09T06:48:28.312Z,51.23
2019-02-09T06:51:02.391Z,42.10
2019-02-09T06:53:34.905Z,41.50
2019-02-09T06:56:07.634Z,40.17
2019-02-09T06:58:40.197Z,41.30
2019-02-09T07:01:12.507Z,40.37
2019-02-09T07:03:45.086Z,42.03
2019-02-09T07:06:17.889Z,43.03
2019-02-09T07:08:50.433Z,41.23
2019-02-09T07:11:22.836Z,42.10
2019-02-09T07:13:55.284Z,40.57
2019-02-09T07:16:28.182Z,40.73
2019-02-09T07:19:00.510Z,41.00
2019-02-09T07:21:33.007Z,40.00
2019-02-09T07:24:06.113Z,39.70
2019-02-09T07:26:38.676Z,40.90
2019-02-09T07:29:11.168Z,42.50
2019-02-09T07:31:43.872Z,38.07
2019-02-09T07:34:16.480Z,38.17
2019-02-09T07:36:49.650Z,40.10
2019-02-09T07:39:22.229Z,40.63
2019-02-09T07:41:54.698Z,40.70
2019-02-09T07:44:27.336Z,38.37
2019-02-09T07:47:00.648Z,39.00
2019-02-09T07:49:33.313Z,38.37
2019-02-09T07:52:06.108Z,39.33
2019-02-09T07:54:38.696Z,37.13
2019-02-09T07:57:11.424Z,37.80
2019-02-09T07:59:43.951Z,36.83
2019-02-09T08:02:16.717Z,35.93
2019-02-09T08:04:49.447Z,37.03
2019-02-09T08:07:22.086Z,37.13
2019-02-09T08:09:54.480Z,37.93
2019-02-09T08:12:27.465Z,36.23
2019-02-09T08:15:00.345Z,36.30
2019-02-09T08:17:33.184Z,36.37
2019-02-09T08:20:06.667Z,36.10
2019-02-09T08:22:39.189Z,34.67
2019-02-09T08:25:15.610Z,35.20
2019-02-09T08:27:48.835Z,37.57
2019-02-09T08:30:25.020Z,38.27
2019-02-09T08:32:58.000Z,34.40
2019-02-09T08:35:30.624Z,34.93
2019-02-09T08:38:03.299Z,35.13
2019-02-09T08:40:36.002Z,34.87
2019-02-09T08:43:08.737Z,35.03
2019-02-09T08:45:41.429Z,35.40
2019-02-09T08:48:14.237Z,34.00
2019-02-09T08:50:55.542Z,33.50
2019-02-09T08:53:28.574Z,33.87
2019-02-09T08:56:01.269Z,35.47
2019-02-09T08:58:33.958Z,42.60
2019-02-09T09:01:07.851Z,37.07
2019-02-09T09:03:40.198Z,34.20
2019-02-09T09:06:12.939Z,36.83
2019-02-09T09:08:45.341Z,37.43
2019-02-09T09:11:17.749Z,34.40
2019-02-09T09:13:50.544Z,35.93
2019-02-09T09:16:23.113Z,34.30
2019-02-09T09:18:55.653Z,34.83
2019-02-09T09:21:28.480Z,42.47
2019-02-09T09:24:00.909Z,44.33
2019-02-09T09:26:33.380Z,45.83
2019-02-09T09:29:05.864Z,38.87
2019-02-09T09:31:38.550Z,41.80
2019-02-09T09:34:11.458Z,36.67
2019-02-09T09:36:44.039Z,42.30
2019-02-09T09:39:16.718Z,38.30
2019-02-09T09:41:49.361Z,37.60
2019-02-09T09:44:21.814Z,37.53
2019-02-09T09:46:54.344Z,36.50
2019-02-09T09:49:39.391Z,36.10
2019-02-09T09:52:23.100Z,34.90
2019-02-09T09:55:08.175Z,34.60
2019-02-09T09:57:40.958Z,34.40
2019-02-09T10:00:15.757Z,35.87
2019-02-09T10:02:48.604Z,35.43
2019-02-09T10:05:21.237Z,36.57
2019-02-09T10:07:53.573Z,37.10
2019-02-09T10:10:26.896Z,36.80
2019-02-09T10:12:59.423Z,37.03
2019-02-09T10:15:31.967Z,37.33
2019-02-09T10:18:05.196Z,36.33
2019-02-09T10:20:37.670Z,37.90
2019-02-09T10:23:10.200Z,39.23
2019-02-09T10:25:42.828Z,36.27
2019-02-09T10:28:15.550Z,36.33
2019-02-09T10:30:48.075Z,37.03
2019-02-09T10:33:20.850Z,37.80
2019-02-09T10:35:54.828Z,38.70
2019-02-09T10:38:27.285Z,37.13
2019-02-09T10:40:59.614Z,44.30
2019-02-09T10:43:32.075Z,46.93
2019-02-09T10:46:04.826Z,39.70
2019-02-09T10:48:37.358Z,42.23
2019-02-09T10:51:09.988Z,37.67
2019-02-09T10:53:42.770Z,46.43
2019-02-09T10:56:15.276Z,44.00
2019-02-09T10:58:47.969Z,49.93
2019-02-09T11:01:23.329Z,43.43
2019-02-09T11:03:55.951Z,40.63
2019-02-09T11:06:28.603Z,44.03
2019-02-09T11:09:01.286Z,48.17
2019-02-09T11:11:33.972Z,53.60
2019-02-09T11:14:06.899Z,43.93
2019-02-09T11:16:39.823Z,55.50
2019-02-09T11:19:12.232Z,40.77
2019-02-09T11:21:44.988Z,41.07
2019-02-09T11:24:17.500Z,39.93
2019-02-09T11:26:50.079Z,41.90
2019-02-09T11:29:22.597Z,40.73
2019-02-09T11:31:55.564Z,38.03
2019-02-09T11:34:27.959Z,38.40
2019-02-09T11:37:00.424Z,41.10
2019-02-09T11:39:33.032Z,39.03
2019-02-09T11:42:06.116Z,37.83
2019-02-09T11:44:41.214Z,38.00
2019-02-09T11:47:12.892Z,35.73
2019-02-09T11:49:45.594Z,37.40
2019-02-09T11:52:18.023Z,38.03
2019-02-09T11:54:50.532Z,37.77
2019-02-09T11:57:22.960Z,36.30
2019-02-09T11:59:56.099Z,37.80
2019-02-09T12:02:28.692Z,37.20
2019-02-09T12:05:01.260Z,36.47
2019-02-09T12:07:33.768Z,38.30
2019-02-09T12:10:07.349Z,35.47
2019-02-09T12:12:39.839Z,37.57
2019-02-09T12:15:17.476Z,37.00
2019-02-09T12:17:50.228Z,38.03
2019-02-09T12:20:22.963Z,40.73
2019-02-09T12:22:55.488Z,35.93
2019-02-09T12:25:33.587Z,35.03
2019-02-09T12:28:08.978Z,34.37
2019-02-09T12:30:42.129Z,36.47
2019-02-09T12:33:22.944Z,35.77
2019-02-09T12:35:49.419Z,35.20
2019-02-09T12:38:21.920Z,35.23
2019-02-09T12:40:54.387Z,34.13
2019-02-09T12:43:27.022Z,34.87
2019-02-09T12:45:59.693Z,35.40
2019-02-09T12:48:32.383Z,32.40
2019-02-09T12:51:04.877Z,33.37
2019-02-09T12:53:37.608Z,32.97
2019-02-09T12:56:10.241Z,33.73
2019-02-09T12:58:43.000Z,33.37
2019-02-09T13:01:15.830Z,32.97
2019-02-09T13:03:48.183Z,32.77
2019-02-09T13:06:21.269Z,32.43
2019-02-09T13:08:53.648Z,32.33
2019-02-09T13:11:26.240Z,33.20
2019-02-09T13:13:58.642Z,33.60
2019-02-09T13:16:31.484Z,33.60
2019-02-09T13:19:05.968Z,34.17
2019-02-09T13:21:38.571Z,32.23
2019-02-09T13:24:12.460Z,31.63
2019-02-09T13:26:44.832Z,32.33
2019-02-09T13:29:17.971Z,33.80
2019-02-09T13:31:50.419Z,32.10
2019-02-09T13:34:23.253Z,31.97
2019-02-09T13:36:55.688Z,32.87
2019-02-09T13:39:28.267Z,31.07
2019-02-09T13:42:00.891Z,33.73
2019-02-09T13:44:33.300Z,32.23
2019-02-09T13:47:05.885Z,32.30
2019-02-09T13:49:38.197Z,32.37
2019-02-09T13:52:10.794Z,32.90
2019-02-09T13:54:43.255Z,32.40
2019-02-09T13:57:15.809Z,33.30
2019-02-09T13:59:48.263Z,33.03
2019-02-09T14:02:20.641Z,33.13
2019-02-09T14:04:52.986Z,31.50
2019-02-09T14:07:25.383Z,31.67
2019-02-09T14:09:57.858Z,33.70
2019-02-09T14:12:30.474Z,33.00
2019-02-09T14:15:02.903Z,32.60
2019-02-09T14:17:35.679Z,33.30
2019-02-09T14:20:09.254Z,32.00
2019-02-09T14:22:42.053Z,33.53
2019-02-09T14:25:15.381Z,31.83
2019-02-09T14:27:49.479Z,30.77
2019-02-09T14:30:26.658Z,33.77
2019-02-09T14:32:59.584Z,33.90
2019-02-09T14:35:32.159Z,33.50
2019-02-09T14:38:05.709Z,31.93
2019-02-09T14:40:38.327Z,33.17
2019-02-09T14:43:11.596Z,33.47
2019-02-09T14:45:45.472Z,34.87
2019-02-09T14:48:18.068Z,32.83
2019-02-09T14:50:50.523Z,33.47
2019-02-09T14:53:23.328Z,33.50
2019-02-09T14:55:55.722Z,32.83
2019-02-09T14:58:28.187Z,33.53
2019-02-09T15:01:00.851Z,31.90
2019-02-09T15:03:33.604Z,33.47
2019-02-09T15:06:06.751Z,32.20
2019-02-09T15:08:39.426Z,33.43
2019-02-09T15:11:12.153Z,34.50
2019-02-09T15:13:44.944Z,33.30
2019-02-09T15:16:33.634Z,33.00
2019-02-09T15:19:06.440Z,32.43
2019-02-09T15:21:38.969Z,39.37
2019-02-09T15:24:11.340Z,34.77
2019-02-09T15:26:44.077Z,33.03
2019-02-09T15:29:16.743Z,32.20
2019-02-09T15:31:49.199Z,44.60
2019-02-09T15:34:22.100Z,32.80
2019-02-09T15:36:54.525Z,33.83
2019-02-09T15:39:27.280Z,32.53
2019-02-09T15:41:59.821Z,31.77
2019-02-09T15:44:32.327Z,31.57
2019-02-09T15:47:04.757Z,34.23
2019-02-09T15:49:37.216Z,33.90
2019-02-09T15:52:09.965Z,33.93
2019-02-09T15:54:42.398Z,32.73
2019-02-09T15:57:15.052Z,34.10
2019-02-09T15:59:47.616Z,34.00
2019-02-09T16:02:19.759Z,39.73
2019-02-09T16:04:52.259Z,39.70
2019-02-09T16:07:25.178Z,36.53
2019-02-09T16:09:59.138Z,34.50
2019-02-09T16:12:31.889Z,34.30
2019-02-09T16:15:04.640Z,35.73
2019-02-09T16:17:37.467Z,34.30
2019-02-09T16:20:12.551Z,34.67
2019-02-09T16:22:45.240Z,36.93
2019-02-09T16:25:18.195Z,37.27
2019-02-09T16:27:50.866Z,38.00
2019-02-09T16:30:25.230Z,37.47
2019-02-09T16:32:58.148Z,35.73
2019-02-09T16:35:30.737Z,37.07
2019-02-09T16:38:03.162Z,34.40
2019-02-09T16:40:35.846Z,34.40
2019-02-09T16:43:08.696Z,34.57
2019-02-09T16:45:41.803Z,36.73
2019-02-09T16:48:17.272Z,43.57
2019-02-09T16:50:49.697Z,39.20
2019-02-09T16:53:22.324Z,36.20
2019-02-09T16:55:54.831Z,35.20
2019-02-09T16:58:27.586Z,33.97
2019-02-09T17:01:00.132Z,35.17
2019-02-09T17:03:32.735Z,33.57
2019-02-09T17:06:05.684Z,34.40
2019-02-09T17:08:38.555Z,33.93
2019-02-09T17:11:11.042Z,32.60
2019-02-09T17:13:43.479Z,31.50
2019-02-09T17:16:16.088Z,34.30
2019-02-09T17:18:48.670Z,33.07
2019-02-09T17:21:21.127Z,33.23
2019-02-09T17:23:53.683Z,33.00
2019-02-09T17:26:26.193Z,33.67
2019-02-09T17:29:00.342Z,34.17
2019-02-09T17:31:32.723Z,35.07
2019-02-09T17:34:05.523Z,34.43
2019-02-09T17:36:38.289Z,35.57
2019-02-09T17:39:11.083Z,33.07
2019-02-09T17:41:43.845Z,32.40
2019-02-09T17:44:16.286Z,33.50
2019-02-09T17:46:48.983Z,32.10
2019-02-09T17:49:21.877Z,33.80
2019-02-09T17:51:54.430Z,32.70
2019-02-09T17:54:26.881Z,34.40
2019-02-09T17:56:59.340Z,39.87
2019-02-09T17:59:32.396Z,36.83
2019-02-09T18:02:04.922Z,35.03
2019-02-09T18:04:37.351Z,76.53
2019-02-09T18:07:10.013Z,50.27
2019-02-09T18:09:43.204Z,41.53
2019-02-09T18:12:15.540Z,34.60
2019-02-09T18:14:48.249Z,33.30
2019-02-09T18:17:21.153Z,34.33
2019-02-09T18:19:53.941Z,37.30
2019-02-09T18:22:26.572Z,37.23
2019-02-09T18:24:59.253Z,36.50
2019-02-09T18:27:32.249Z,35.67
2019-02-09T18:30:06.357Z,38.33
2019-02-09T18:32:39.163Z,37.53
2019-02-09T18:35:11.849Z,38.10
2019-02-09T18:37:44.433Z,38.23
2019-02-09T18:40:21.035Z,38.77
2019-02-09T18:42:53.648Z,39.47
2019-02-09T18:45:28.370Z,40.00
2019-02-09T18:48:01.095Z,40.47
2019-02-09T18:50:33.684Z,38.07
2019-02-09T18:53:06.395Z,37.97
2019-02-09T18:55:38.905Z,35.87
2019-02-09T18:58:11.428Z,37.30
2019-02-09T19:00:44.280Z,37.50
2019-02-09T19:03:17.142Z,35.57
2019-02-09T19:05:50.008Z,38.00
2019-02-09T19:08:22.359Z,36.93
2019-02-09T19:10:54.926Z,37.30
2019-02-09T19:13:27.436Z,38.80
2019-02-09T19:16:00.207Z,66.40
2019-02-09T19:18:32.700Z,81.13
2019-02-09T19:21:07.213Z,41.03
2019-02-09T19:23:39.597Z,38.40
2019-02-09T19:26:12.328Z,39.67
2019-02-09T19:28:44.745Z,39.40
2019-02-09T19:31:18.403Z,41.73
2019-02-09T19:33:51.007Z,39.00
2019-02-09T19:36:23.403Z,44.03
2019-02-09T19:38:55.755Z,38.40
2019-02-09T19:41:28.342Z,37.30
2019-02-09T19:44:01.047Z,39.33
2019-02-09T19:46:33.657Z,37.93
2019-02-09T19:49:06.347Z,39.53
2019-02-09T19:51:39.035Z,47.73
2019-02-09T19:54:11.561Z,47.90
2019-02-09T19:56:44.028Z,45.47
2019-02-09T19:59:16.502Z,45.27
2019-02-09T20:01:49.408Z,48.53
2019-02-09T20:04:22.084Z,43.37
2019-02-09T20:06:54.982Z,43.30
2019-02-09T20:09:27.363Z,43.30
2019-02-09T20:12:00.261Z,47.43
2019-02-09T20:14:32.652Z,44.90
2019-02-09T20:17:05.117Z,42.00
2019-02-09T20:19:37.488Z,41.83
2019-02-09T20:22:10.341Z,47.57
2019-02-09T20:24:42.859Z,50.63
2019-02-09T20:27:16.751Z,44.43
2019-02-09T20:29:49.339Z,43.87
2019-02-09T20:32:21.818Z,42.20
2019-02-09T20:34:54.405Z,41.43
2019-02-09T20:37:26.977Z,42.80
2019-02-09T20:39:59.407Z,41.97
2019-02-09T20:42:31.839Z,41.37
2019-02-09T20:45:05.397Z,43.27
2019-02-09T20:47:37.928Z,42.83
2019-02-09T20:50:12.263Z,42.03
2019-02-09T20:52:44.734Z,43.30
2019-02-09T20:55:17.649Z,41.20
2019-02-09T20:57:49.958Z,46.53
2019-02-09T21:00:23.692Z,44.43
2019-02-09T21:02:58.164Z,41.27
2019-02-09T21:05:36.463Z,42.73
2019-02-09T21:08:06.335Z,43.10
2019-02-09T21:10:39.074Z,44.47
2019-02-09T21:13:11.681Z,44.20
2019-02-09T21:15:44.419Z,61.83
2019-02-09T21:18:16.907Z,51.17
2019-02-09T21:20:49.586Z,46.40
2019-02-09T21:23:22.616Z,48.30
2019-02-09T21:25:55.402Z,47.93
2019-02-09T21:28:27.949Z,44.70
2019-02-09T21:31:00.434Z,45.00
2019-02-09T21:33:34.434Z,55.93
2019-02-09T21:36:07.250Z,71.73
2019-02-09T21:38:39.923Z,70.80
2019-02-09T21:41:12.367Z,70.60
2019-02-09T21:43:46.493Z,47.47
2019-02-09T21:46:18.980Z,45.73
2019-02-09T21:48:51.436Z,45.53
2019-02-09T21:51:24.185Z,44.07
2019-02-09T21:53:56.779Z,42.93
2019-02-09T21:56:29.196Z,46.03
2019-02-09T21:59:02.690Z,46.57
2019-02-09T22:01:35.072Z,43.93
2019-02-09T22:04:07.641Z,45.00
2019-02-09T22:06:40.217Z,42.70
2019-02-09T22:09:12.918Z,43.53
2019-02-09T22:11:45.357Z,42.10
2019-02-09T22:14:17.858Z,42.27
2019-02-09T22:16:50.379Z,40.43
2019-02-09T22:19:24.437Z,42.97
2019-02-09T22:21:57.461Z,40.30
2019-02-09T22:24:30.102Z,42.57
2019-02-09T22:27:02.494Z,40.40
2019-02-09T22:29:35.357Z,41.40
2019-02-09T22:32:08.079Z,39.87
2019-02-09T22:34:40.578Z,43.07
2019-02-09T22:37:12.937Z,41.07
2019-02-09T22:39:45.998Z,41.20
2019-02-09T22:42:18.372Z,43.00
2019-02-09T22:44:50.874Z,41.63
2019-02-09T22:47:23.430Z,41.00
2019-02-09T22:49:56.052Z,41.40
2019-02-09T22:52:28.623Z,41.73
2019-02-09T22:55:01.528Z,41.50
2019-02-09T22:57:34.024Z,41.73
2019-02-09T23:00:36.977Z,39.87
2019-02-09T23:03:11.007Z,41.20
2019-02-09T23:06:51.551Z,42.73
2019-02-09T23:09:26.505Z,41.13
2019-02-09T23:11:59.248Z,41.27
2019-02-09T23:14:32.260Z,41.60
2019-02-09T23:17:04.962Z,41.10
2019-02-09T23:19:37.442Z,40.73
2019-02-09T23:22:10.191Z,40.63
2019-02-09T23:24:42.650Z,39.60
2019-02-09T23:27:16.228Z,40.17
2019-02-09T23:29:48.763Z,41.50
2019-02-09T23:32:21.397Z,41.10
2019-02-09T23:34:54.061Z,41.07
2019-02-09T23:37:26.490Z,41.27
2019-02-09T23:39:58.941Z,41.67
2019-02-09T23:42:31.354Z,39.63
2019-02-09T23:45:03.859Z,41.33
2019-02-09T23:47:36.570Z,42.67
2019-02-09T23:50:08.989Z,55.67
2019-02-09T23:52:41.666Z,52.07
2019-02-09T23:55:14.271Z,42.57
2019-02-09T23:57:46.906Z,41.37
